Time;durP1;ratioP1;P1;durP2;ratioP2;P2;SDS_P1;SDS_P2;PMS_P1;PMS_P2;Temp;Humidity;BMP_temperature;BMP_pressure;BME280_temperature;BME280_humidity;BME280_pressure;Samples;Min_cycle;Max_cycle;Signal;HPM_P1;HPM_P2
2024/01/02 00:01:34;;;;;;;4.85;0.80;;;6.70;99.90;;;;;;4970691;28;20028;-74
2024/01/02 00:03:59;;;;;;;7.43;1.10;;;6.80;99.90;;;;;;4970452;28;20038;-73
2024/01/02 00:06:25;;;;;;;6.05;1.25;;;6.80;99.90;;;;;;4969133;28;20496;-74
2024/01/02 00:08:51;;;;;;;7.43;0.95;;;6.70;99.90;;;;;;4971349;28;20106;-73
2024/01/02 00:11:16;;;;;;;6.07;1.08;;;6.70;99.90;;;;;;4973807;28;20034;-73
2024/01/02 00:13:42;;;;;;;5.57;0.80;;;6.70;99.90;;;;;;4960944;28;20089;-74
2024/01/02 00:16:08;;;;;;;6.30;1.25;;;6.70;99.90;;;;;;4964652;28;20718;-73
2024/01/02 00:18:34;;;;;;;7.57;0.95;;;6.70;99.90;;;;;;4960748;28;20106;-73
2024/01/02 00:20:59;;;;;;;6.07;0.73;;;6.80;99.90;;;;;;4971748;28;20109;-73
2024/01/02 00:23:25;;;;;;;5.95;0.88;;;6.80;99.90;;;;;;4966370;28;20078;-73
2024/01/02 00:25:51;;;;;;;5.20;1.15;;;6.80;99.90;;;;;;4969479;28;20023;-75
2024/01/02 00:28:18;;;;;;;5.05;0.95;;;6.70;99.90;;;;;;4971907;28;20031;-74
2024/01/02 00:30:43;;;;;;;1.65;0.50;;;6.70;99.90;;;;;;4973244;28;20035;-74
2024/01/02 00:33:09;;;;;;;5.55;0.82;;;6.80;99.90;;;;;;4972699;28;20543;-74
2024/01/02 00:35:35;;;;;;;3.88;0.80;;;6.80;99.90;;;;;;4950377;28;20078;-74
2024/01/02 00:38:00;;;;;;;4.00;0.75;;;6.80;99.90;;;;;;4961357;28;20082;-74
2024/01/02 00:40:26;;;;;;;3.63;0.52;;;6.80;99.90;;;;;;4970546;28;20113;-73
2024/01/02 00:42:52;;;;;;;3.83;0.60;;;6.80;99.90;;;;;;4969867;28;20031;-74
2024/01/02 00:45:17;;;;;;;5.13;0.77;;;6.80;99.90;;;;;;4966645;28;20110;-74
2024/01/02 00:47:43;;;;;;;3.20;0.70;;;6.80;99.90;;;;;;4968416;28;20067;-73
2024/01/02 00:50:09;;;;;;;2.88;0.55;;;6.80;99.90;;;;;;4969883;28;20151;-73
2024/01/02 00:52:35;;;;;;;4.95;1.10;;;7.00;99.90;;;;;;4965926;28;20085;-75
2024/01/02 00:55:03;;;;;;;4.85;0.60;;;6.90;99.90;;;;;;4971953;28;20027;-74
2024/01/02 00:57:28;;;;;;;2.58;0.52;;;7.00;99.90;;;;;;4969349;28;20107;-73
2024/01/02 00:59:54;;;;;;;2.38;0.63;;;7.00;99.90;;;;;;4969301;28;20159;-75
2024/01/02 01:02:20;;;;;;;2.05;0.60;;;6.90;99.90;;;;;;4970749;28;20035;-75
2024/01/02 01:04:45;;;;;;;4.05;0.93;;;6.90;99.90;;;;;;4971933;28;20460;-73
2024/01/02 01:07:11;;;;;;;1.05;0.45;;;6.80;99.90;;;;;;4971993;28;20035;-74
2024/01/02 01:09:38;;;;;;;4.43;0.95;;;6.80;99.90;;;;;;4965686;28;20110;-74
2024/01/02 01:12:05;;;;;;;3.67;0.77;;;6.80;99.90;;;;;;4957722;28;20030;-73
2024/01/02 01:14:31;;;;;;;6.70;1.30;;;6.80;99.90;;;;;;4970758;28;20034;-73
2024/01/02 01:16:58;;;;;;;5.78;0.73;;;6.80;99.90;;;;;;4969158;28;20492;-73
2024/01/02 01:19:24;;;;;;;2.95;0.50;;;6.80;99.90;;;;;;4972288;28;20081;-74
2024/01/02 01:21:51;;;;;;;1.35;0.80;;;6.80;99.90;;;;;;4970610;28;20035;-72
2024/01/02 01:24:17;;;;;;;3.28;0.60;;;6.70;99.90;;;;;;4965547;28;20109;-74
2024/01/02 01:26:42;;;;;;;2.22;0.70;;;6.70;99.90;;;;;;4968585;28;20066;-72
2024/01/02 01:29:08;;;;;;;2.10;0.55;;;6.70;99.90;;;;;;4962478;28;20046;-73
2024/01/02 01:31:34;;;;;;;1.65;0.90;;;6.80;99.90;;;;;;4965296;28;20022;-73
2024/01/02 01:33:59;;;;;;;3.13;0.80;;;6.80;99.90;;;;;;4959714;28;20027;-73
2024/01/02 01:36:26;;;;;;;7.05;0.80;;;6.80;99.90;;;;;;4953078;28;20027;-74
2024/01/02 01:38:51;;;;;;;3.88;0.85;;;6.80;99.90;;;;;;4951391;28;20518;-73
2024/01/02 01:41:17;;;;;;;2.75;0.60;;;6.90;99.90;;;;;;4935747;29;20031;-74
2024/01/02 01:43:43;;;;;;;3.40;0.82;;;6.80;99.90;;;;;;4962368;28;20621;-73
2024/01/02 01:46:09;;;;;;;2.47;0.73;;;6.80;99.90;;;;;;4953488;28;20035;-74
2024/01/02 01:48:35;;;;;;;1.23;0.70;;;6.80;99.90;;;;;;4953758;28;20038;-74
2024/01/02 01:51:01;;;;;;;1.48;0.70;;;6.80;99.90;;;;;;4963346;28;20165;-73
2024/01/02 01:53:28;;;;;;;2.35;0.85;;;6.90;99.90;;;;;;4958273;28;20115;-74
2024/01/02 01:55:54;;;;;;;3.20;0.70;;;6.80;99.90;;;;;;4958117;28;20054;-74
2024/01/02 01:58:20;;;;;;;1.67;0.47;;;6.80;99.90;;;;;;4965442;28;20106;-75
2024/01/02 02:00:46;;;;;;;2.40;0.50;;;6.90;99.90;;;;;;4957283;28;20110;-73
2024/01/02 02:03:13;;;;;;;3.35;0.50;;;6.80;99.90;;;;;;4960471;28;20106;-73
2024/01/02 02:05:38;;;;;;;2.22;0.50;;;6.70;99.90;;;;;;4964221;28;20023;-74
2024/01/02 02:08:04;;;;;;;1.90;0.50;;;6.80;99.90;;;;;;4967338;28;20761;-74
2024/01/02 02:10:30;;;;;;;2.97;0.70;;;6.80;99.90;;;;;;4964214;28;20027;-75
2024/01/02 02:12:57;;;;;;;2.97;0.57;;;6.80;99.90;;;;;;4962697;28;20106;-75
2024/01/02 02:15:23;;;;;;;2.20;0.50;;;6.80;99.90;;;;;;4959261;28;20027;-74
2024/01/02 02:17:49;;;;;;;2.50;0.70;;;6.80;99.90;;;;;;4961834;28;20046;-74
2024/01/02 02:20:15;;;;;;;2.40;0.50;;;6.90;99.90;;;;;;4965869;28;20043;-75
2024/01/02 02:22:51;;;;;;;3.05;0.73;;;6.90;99.90;;;;;;4959030;28;20519;-73
2024/01/02 02:25:18;;;;;;;0.73;0.40;;;6.90;99.90;;;;;;4959869;28;20019;-73
2024/01/02 02:27:47;;;;;;;0.70;0.43;;;6.90;99.90;;;;;;4962817;28;20063;-73
2024/01/02 02:30:13;;;;;;;1.67;0.40;;;6.90;99.90;;;;;;4963531;28;20035;-75
2024/01/02 02:32:38;;;;;;;1.58;0.55;;;6.90;99.90;;;;;;4959308;28;20032;-75
2024/01/02 02:35:05;;;;;;;2.63;0.60;;;7.00;99.90;;;;;;4962528;28;20212;-73
2024/01/02 02:37:31;;;;;;;2.88;0.52;;;7.00;99.90;;;;;;4963083;28;20035;-74
2024/01/02 02:39:56;;;;;;;1.88;0.60;;;7.00;99.90;;;;;;4959945;28;20034;-74
2024/01/02 02:42:22;;;;;;;0.90;0.30;;;7.00;99.90;;;;;;4956989;28;20116;-74
2024/01/02 02:44:47;;;;;;;1.83;0.60;;;7.00;99.90;;;;;;4964467;28;20020;-73
2024/01/02 02:47:13;;;;;;;1.77;0.70;;;7.00;99.90;;;;;;4961705;28;20023;-75
2024/01/02 02:49:39;;;;;;;2.83;0.70;;;7.10;99.90;;;;;;4961668;28;20231;-73
2024/01/02 02:52:06;;;;;;;1.95;0.70;;;7.10;99.90;;;;;;4956520;28;20023;-74
2024/01/02 02:54:31;;;;;;;3.00;0.93;;;7.10;99.90;;;;;;4963881;28;20023;-74
2024/01/02 02:56:57;;;;;;;2.17;0.50;;;7.00;99.90;;;;;;4962247;28;20033;-75
2024/01/02 02:59:22;;;;;;;2.15;0.50;;;7.00;99.90;;;;;;4958851;28;20038;-76
2024/01/02 03:01:48;;;;;;;2.35;0.52;;;7.00;99.90;;;;;;4962838;28;20077;-74
2024/01/02 03:04:14;;;;;;;1.60;0.52;;;7.00;99.90;;;;;;4959947;28;20027;-74
2024/01/02 03:06:39;;;;;;;4.63;0.70;;;6.90;99.90;;;;;;4959346;28;20028;-75
2024/01/02 03:09:06;;;;;;;3.20;1.30;;;6.90;99.90;;;;;;4958859;28;20047;-73
2024/01/02 03:11:31;;;;;;;0.95;0.60;;;6.80;99.90;;;;;;4965512;28;20031;-75
2024/01/02 03:13:57;;;;;;;2.97;0.30;;;6.90;99.90;;;;;;4958905;28;20027;-74
2024/01/02 03:16:24;;;;;;;2.00;0.80;;;6.90;99.90;;;;;;4962942;28;20055;-75
2024/01/02 03:18:50;;;;;;;1.30;0.30;;;6.90;99.90;;;;;;4968371;28;20089;-74
2024/01/02 03:21:15;;;;;;;3.20;0.50;;;6.80;99.90;;;;;;4965264;28;20055;-75
2024/01/02 03:23:41;;;;;;;1.00;0.28;;;6.80;99.90;;;;;;4961861;28;20031;-73
2024/01/02 03:26:09;;;;;;;0.50;0.32;;;6.80;99.90;;;;;;4963486;28;20030;-75
2024/01/02 03:28:34;;;;;;;1.05;0.40;;;6.70;99.90;;;;;;4967119;28;20023;-74
2024/01/02 03:31:03;;;;;;;0.35;0.35;;;6.70;99.90;;;;;;4966757;28;20033;-74
2024/01/02 03:33:28;;;;;;;1.85;0.30;;;6.70;99.90;;;;;;4962122;28;20062;-74
2024/01/02 03:35:54;;;;;;;1.60;0.20;;;6.70;99.90;;;;;;4964836;28;20070;-74
2024/01/02 03:38:19;;;;;;;2.05;0.60;;;6.60;99.90;;;;;;4947064;28;20023;-75
2024/01/02 03:40:45;;;;;;;1.80;0.82;;;6.60;99.90;;;;;;4962618;28;20062;-73
2024/01/02 03:43:11;;;;;;;2.75;1.00;;;6.60;99.90;;;;;;4960866;28;20058;-74
2024/01/02 03:45:36;;;;;;;3.83;1.40;;;6.60;99.90;;;;;;4960494;28;20035;-75
2024/01/02 03:48:02;;;;;;;3.85;0.93;;;6.50;99.90;;;;;;4965172;28;20033;-74
2024/01/02 03:50:28;;;;;;;2.33;0.30;;;6.40;99.90;;;;;;4965638;28;20460;-75
2024/01/02 03:52:53;;;;;;;1.13;0.40;;;6.40;99.90;;;;;;4969137;28;20027;-75
2024/01/02 03:55:19;;;;;;;0.30;0.20;;;6.40;99.90;;;;;;4964236;28;20035;-75
2024/01/02 03:57:44;;;;;;;1.85;0.40;;;6.40;99.90;;;;;;4967700;28;20029;-72
2024/01/02 04:00:10;;;;;;;1.20;0.40;;;6.40;99.90;;;;;;4971894;28;20041;-74
2024/01/02 04:02:37;;;;;;;0.60;0.20;;;6.40;99.90;;;;;;4992189;28;20054;-73
2024/01/02 04:05:03;;;;;;;0.63;0.10;;;6.30;99.90;;;;;;4989474;28;20190;-75
2024/01/02 04:07:29;;;;;;;2.72;0.20;;;6.30;99.90;;;;;;4985855;28;20023;-73
2024/01/02 04:09:55;;;;;;;0.85;0.30;;;6.40;99.90;;;;;;4981404;28;20042;-74
2024/01/02 04:12:20;;;;;;;0.75;0.20;;;6.30;99.90;;;;;;4973311;28;20038;-74
2024/01/02 04:14:46;;;;;;;0.50;0.20;;;6.40;99.90;;;;;;4974571;28;20031;-73
2024/01/02 04:17:12;;;;;;;0.98;0.15;;;6.30;99.90;;;;;;4971538;28;20126;-73
2024/01/02 04:19:37;;;;;;;1.20;0.30;;;6.30;99.90;;;;;;4974357;28;20394;-75
2024/01/02 04:22:04;;;;;;;0.68;0.45;;;6.30;99.90;;;;;;4964442;28;20031;-74
2024/01/02 04:24:30;;;;;;;4.13;0.38;;;6.40;99.90;;;;;;4961157;28;20037;-74
2024/01/02 04:26:55;;;;;;;2.95;0.30;;;6.30;99.90;;;;;;4963989;28;20035;-74
2024/01/02 04:29:21;;;;;;;0.68;0.10;;;6.30;99.90;;;;;;4973809;28;20035;-74
2024/01/02 04:31:47;;;;;;;1.85;0.10;;;6.30;99.90;;;;;;4968010;28;20143;-72
2024/01/02 04:34:12;;;;;;;1.13;0.20;;;6.20;99.90;;;;;;4967918;28;20057;-74
2024/01/02 04:36:40;;;;;;;0.10;0.10;;;6.10;99.90;;;;;;4974638;28;20106;-75
2024/01/02 04:39:06;;;;;;;0.10;0.10;;;6.10;99.90;;;;;;4967535;28;20048;-74
2024/01/02 04:41:32;;;;;;;0.45;0.20;;;6.20;99.90;;;;;;4974285;28;20054;-74
2024/01/02 04:43:57;;;;;;;0.85;0.10;;;6.10;99.90;;;;;;4959407;28;20476;-74
2024/01/02 04:46:23;;;;;;;2.38;0.30;;;6.00;99.90;;;;;;4962445;28;20034;-74
2024/01/02 04:48:49;;;;;;;0.45;0.20;;;6.00;99.90;;;;;;4972513;28;20063;-74
2024/01/02 04:51:14;;;;;;;2.35;0.40;;;6.00;99.90;;;;;;4971436;28;20031;-73
2024/01/02 04:53:40;;;;;;;0.25;0.10;;;5.90;99.90;;;;;;4964469;28;20030;-74
2024/01/02 04:56:06;;;;;;;0.60;0.20;;;5.90;99.90;;;;;;4966594;28;20037;-73
2024/01/02 04:58:32;;;;;;;0.28;0.10;;;5.90;99.90;;;;;;4972517;28;20159;-73
2024/01/02 05:00:57;;;;;;;0.85;0.20;;;5.90;99.90;;;;;;4973092;28;20118;-73
2024/01/02 05:03:23;;;;;;;0.95;0.10;;;5.90;99.90;;;;;;4966018;28;20023;-74
2024/01/02 05:05:48;;;;;;;0.52;0.20;;;5.80;99.90;;;;;;4972574;28;20042;-73
2024/01/02 05:08:14;;;;;;;0.10;0.10;;;5.80;99.90;;;;;;4960793;28;20075;-74
2024/01/02 05:10:40;;;;;;;1.38;0.50;;;5.80;99.90;;;;;;4959291;28;20388;-74
2024/01/02 05:13:05;;;;;;;0.10;0.10;;;5.80;99.90;;;;;;4971174;28;20038;-74
2024/01/02 05:15:31;;;;;;;0.40;0.22;;;5.80;99.90;;;;;;4971366;28;20061;-74
2024/01/02 05:17:56;;;;;;;3.88;0.77;;;5.80;99.90;;;;;;4960026;28;20027;-73
2024/01/02 05:20:22;;;;;;;1.30;0.40;;;5.80;99.90;;;;;;4968405;28;20082;-75
2024/01/02 05:22:48;;;;;;;1.00;0.10;;;5.90;99.90;;;;;;4963100;28;20130;-74
2024/01/02 05:25:13;;;;;;;2.25;0.45;;;5.90;99.90;;;;;;4955653;28;20032;-74
2024/01/02 05:27:39;;;;;;;2.05;0.25;;;5.90;99.90;;;;;;4968588;28;20034;-75
2024/01/02 05:30:06;;;;;;;0.60;0.20;;;5.90;99.90;;;;;;4962678;28;20464;-74
2024/01/02 05:32:31;;;;;;;2.47;0.20;;;5.80;99.90;;;;;;4968865;28;20376;-74
2024/01/02 05:34:57;;;;;;;1.45;0.28;;;5.80;99.90;;;;;;4970078;28;20038;-74
2024/01/02 05:37:22;;;;;;;2.25;0.38;;;5.80;99.90;;;;;;4964086;28;20078;-75
2024/01/02 05:39:48;;;;;;;2.20;0.20;;;5.90;99.90;;;;;;4971408;28;20047;-74
2024/01/02 05:42:14;;;;;;;0.88;0.32;;;5.90;99.90;;;;;;4964331;28;20496;-75
2024/01/02 05:44:39;;;;;;;1.05;0.32;;;5.90;99.90;;;;;;4972914;28;20031;-74
2024/01/02 05:47:05;;;;;;;1.30;0.30;;;5.90;99.90;;;;;;4965570;28;20053;-75
2024/01/02 05:49:30;;;;;;;1.65;0.10;;;5.90;99.90;;;;;;4972887;28;20066;-74
2024/01/02 05:51:57;;;;;;;1.45;0.20;;;5.90;99.90;;;;;;4970286;28;20055;-74
2024/01/02 05:54:22;;;;;;;0.80;0.40;;;5.90;99.90;;;;;;4964487;28;20027;-74
2024/01/02 05:56:48;;;;;;;0.55;0.20;;;6.00;99.90;;;;;;4968553;28;20452;-74
2024/01/02 05:59:14;;;;;;;0.47;0.15;;;6.00;99.90;;;;;;4962191;28;20041;-74
2024/01/02 06:01:39;;;;;;;1.40;0.20;;;5.90;99.90;;;;;;4968208;28;20023;-74
2024/01/02 06:04:05;;;;;;;0.60;0.25;;;5.90;99.90;;;;;;4963663;28;20037;-74
2024/01/02 06:06:30;;;;;;;0.65;0.20;;;6.00;99.90;;;;;;4970781;28;20035;-74
2024/01/02 06:08:56;;;;;;;4.10;0.40;;;6.10;99.90;;;;;;4969056;28;20027;-76
2024/01/02 06:11:21;;;;;;;0.75;0.20;;;6.10;99.90;;;;;;4963776;28;20038;-74
2024/01/02 06:13:47;;;;;;;1.30;0.20;;;6.00;99.90;;;;;;4970709;28;20456;-74
2024/01/02 06:16:12;;;;;;;1.33;0.30;;;6.10;99.90;;;;;;4964110;28;20062;-76
2024/01/02 06:18:38;;;;;;;0.63;0.28;;;6.10;99.90;;;;;;4963778;28;20027;-74
2024/01/02 06:21:04;;;;;;;0.90;0.15;;;6.00;99.90;;;;;;4962454;28;20656;-75
2024/01/02 06:23:33;;;;;;;1.48;0.20;;;6.10;99.90;;;;;;4958479;28;20027;-74
2024/01/02 06:25:59;;;;;;;0.70;0.20;;;6.10;99.90;;;;;;4967378;28;20050;-73
2024/01/02 06:28:25;;;;;;;0.47;0.20;;;6.10;99.90;;;;;;4963420;28;20058;-75
2024/01/02 06:30:50;;;;;;;1.15;0.20;;;6.10;99.90;;;;;;4967075;28;20381;-74
2024/01/02 06:33:16;;;;;;;0.40;0.28;;;6.10;99.90;;;;;;4959919;28;20035;-74
2024/01/02 06:35:42;;;;;;;1.33;0.20;;;6.20;99.90;;;;;;4968008;28;20032;-73
2024/01/02 06:38:11;;;;;;;2.15;0.50;;;6.20;99.90;;;;;;4959991;28;20026;-75
2024/01/02 06:40:37;;;;;;;2.10;0.30;;;6.30;99.90;;;;;;4970292;28;20043;-75
2024/01/02 06:43:04;;;;;;;1.13;0.20;;;6.30;99.90;;;;;;4960814;28;20558;-74
2024/01/02 06:45:30;;;;;;;3.72;0.50;;;6.40;99.90;;;;;;4960730;28;20043;-74
2024/01/02 06:47:56;;;;;;;1.25;0.60;;;6.30;99.90;;;;;;4968991;28;20472;-75
2024/01/02 06:50:21;;;;;;;0.25;0.20;;;6.30;99.90;;;;;;4963210;28;20034;-74
2024/01/02 06:52:47;;;;;;;0.57;0.38;;;6.30;99.90;;;;;;4962595;28;20038;-74
2024/01/02 06:55:13;;;;;;;1.85;0.30;;;6.30;99.90;;;;;;4962667;28;20412;-75
2024/01/02 06:57:39;;;;;;;2.03;0.50;;;6.30;99.90;;;;;;4970562;28;20033;-75
2024/01/02 07:00:06;;;;;;;1.13;0.30;;;6.40;99.90;;;;;;4968347;28;20059;-75
2024/01/02 07:02:32;;;;;;;1.17;0.25;;;6.40;99.90;;;;;;4957019;28;20054;-75
2024/01/02 07:04:59;;;;;;;1.45;0.10;;;6.40;99.90;;;;;;4963940;28;20381;-75
2024/01/02 07:07:24;;;;;;;2.58;0.40;;;6.50;99.90;;;;;;4958216;28;20038;-76
2024/01/02 07:09:50;;;;;;;1.23;0.30;;;6.40;99.90;;;;;;4967879;28;20042;-76
2024/01/02 07:12:16;;;;;;;0.50;0.28;;;6.50;99.90;;;;;;4970868;28;20027;-75
2024/01/02 07:14:41;;;;;;;2.15;0.50;;;6.50;99.90;;;;;;4969026;28;20027;-75
2024/01/02 07:17:07;;;;;;;0.40;0.30;;;6.50;99.90;;;;;;4959567;28;20110;-75
2024/01/02 07:19:33;;;;;;;0.75;0.30;;;6.50;99.90;;;;;;4961895;28;20043;-75
2024/01/02 07:21:59;;;;;;;2.28;0.30;;;6.50;99.90;;;;;;4960833;28;20031;-75
2024/01/02 07:24:25;;;;;;;0.85;0.30;;;6.40;99.90;;;;;;4957327;28;20034;-75
2024/01/02 07:26:50;;;;;;;2.28;0.40;;;6.50;99.90;;;;;;4962034;28;20050;-75
2024/01/02 07:29:16;;;;;;;1.77;0.32;;;6.50;99.90;;;;;;4963564;28;20113;-75
2024/01/02 07:31:42;;;;;;;1.42;0.60;;;6.50;99.90;;;;;;4955627;28;20031;-74
2024/01/02 07:34:07;;;;;;;0.70;0.30;;;6.50;99.90;;;;;;4966483;28;20030;-75
2024/01/02 07:36:33;;;;;;;1.02;0.50;;;6.50;99.90;;;;;;4967253;28;20058;-76
2024/01/02 07:38:59;;;;;;;0.47;0.20;;;6.50;99.90;;;;;;4960590;28;20121;-75
2024/01/02 07:41:24;;;;;;;0.90;0.30;;;6.60;99.90;;;;;;4965876;28;20027;-76
2024/01/02 07:43:50;;;;;;;0.88;0.43;;;6.60;99.90;;;;;;4963399;28;20037;-76
2024/01/02 07:46:16;;;;;;;1.10;0.30;;;6.60;99.90;;;;;;4968000;28;20442;-75
2024/01/02 07:48:42;;;;;;;1.05;0.30;;;6.70;99.90;;;;;;4963909;28;20052;-73
2024/01/02 07:51:08;;;;;;;0.40;0.30;;;6.70;99.90;;;;;;4960275;28;20027;-75
2024/01/02 07:53:33;;;;;;;0.43;0.35;;;6.80;99.90;;;;;;4966150;28;20035;-75
2024/01/02 07:56:03;;;;;;;1.08;0.32;;;6.90;99.90;;;;;;4967449;28;20043;-75
2024/01/02 07:58:28;;;;;;;0.55;0.38;;;6.90;99.90;;;;;;4965213;28;20034;-75
2024/01/02 08:00:54;;;;;;;0.85;0.40;;;6.90;99.90;;;;;;4962089;28;20047;-76
2024/01/02 08:03:19;;;;;;;0.82;0.20;;;6.90;99.90;;;;;;4971384;28;20162;-75
2024/01/02 08:05:45;;;;;;;0.88;0.35;;;7.00;99.90;;;;;;4961583;28;20483;-74
2024/01/02 08:08:11;;;;;;;2.72;0.75;;;7.00;99.90;;;;;;4958229;28;20110;-76
2024/01/02 08:10:37;;;;;;;0.38;0.30;;;7.10;99.90;;;;;;4975025;28;20034;-75
2024/01/02 08:13:03;;;;;;;0.40;0.20;;;7.10;99.90;;;;;;4967366;28;20036;-75
2024/01/02 08:15:30;;;;;;;0.30;0.20;;;7.10;99.90;;;;;;4971264;28;20387;-76
2024/01/02 08:17:57;;;;;;;0.30;0.20;;;7.10;99.90;;;;;;4964495;28;20026;-76
2024/01/02 08:20:22;;;;;;;0.30;0.30;;;7.10;99.90;;;;;;4969032;28;20396;-76
2024/01/02 08:22:48;;;;;;;0.40;0.17;;;7.10;99.90;;;;;;4969828;28;20031;-76
2024/01/02 08:25:14;;;;;;;3.00;1.05;;;7.10;99.90;;;;;;4973955;28;20030;-75
2024/01/02 08:27:39;;;;;;;0.93;0.10;;;7.10;99.90;;;;;;4965094;28;20459;-76
2024/01/02 08:30:06;;;;;;;0.50;0.40;;;7.20;99.90;;;;;;4963939;28;20034;-76
2024/01/02 08:32:31;;;;;;;3.13;0.82;;;7.30;99.90;;;;;;4965103;28;20361;-75
2024/01/02 08:34:57;;;;;;;8.50;3.17;;;7.30;99.90;;;;;;4964258;28;20031;-74
2024/01/02 08:37:23;;;;;;;1.20;0.17;;;7.30;99.90;;;;;;4972142;28;20031;-77
2024/01/02 08:39:48;;;;;;;6.30;1.60;;;7.40;99.90;;;;;;4968133;28;20042;-76
2024/01/02 08:42:14;;;;;;;0.20;0.20;;;7.40;99.90;;;;;;4970234;28;20058;-76
2024/01/02 08:44:40;;;;;;;0.60;0.20;;;7.40;99.90;;;;;;4958567;28;20059;-76
2024/01/02 08:47:06;;;;;;;0.75;0.17;;;7.50;99.90;;;;;;4964797;28;20218;-76
2024/01/02 08:49:31;;;;;;;0.10;0.10;;;7.60;99.90;;;;;;4973598;28;20051;-76
2024/01/02 08:51:57;;;;;;;0.30;0.10;;;7.70;99.90;;;;;;4970991;28;20113;-75
2024/01/02 08:54:22;;;;;;;0.35;0.10;;;7.80;99.90;;;;;;4960680;28;20059;-76
2024/01/02 08:56:48;;;;;;;0.85;0.20;;;7.90;99.90;;;;;;4966120;28;20028;-75
2024/01/02 08:59:14;;;;;;;0.38;0.20;;;7.90;99.90;;;;;;4960769;28;20149;-76
2024/01/02 09:01:39;;;;;;;0.43;0.30;;;8.00;99.90;;;;;;4965255;28;20034;-78
2024/01/02 09:04:05;;;;;;;0.22;0.20;;;8.10;99.90;;;;;;4964172;28;20042;-77
2024/01/02 09:06:30;;;;;;;0.32;0.20;;;8.10;99.90;;;;;;4964574;28;20472;-77
2024/01/02 09:08:57;;;;;;;1.80;0.20;;;8.10;99.90;;;;;;4966038;28;20038;-77
2024/01/02 09:11:24;;;;;;;1.08;0.30;;;8.10;99.90;;;;;;4963576;28;20030;-77
2024/01/02 09:13:49;;;;;;;1.00;0.40;;;8.10;99.90;;;;;;4955335;28;20063;-76
2024/01/02 09:16:15;;;;;;;0.52;0.20;;;8.10;99.90;;;;;;4971709;28;20523;-75
2024/01/02 09:18:41;;;;;;;0.93;0.28;;;8.20;99.90;;;;;;4961665;28;20035;-76
2024/01/02 09:21:06;;;;;;;1.27;0.20;;;8.20;99.90;;;;;;4969997;28;20436;-77
2024/01/02 09:23:34;;;;;;;1.08;0.20;;;8.20;99.90;;;;;;4966211;28;20475;-77
2024/01/02 09:26:03;;;;;;;0.20;0.13;;;8.30;99.90;;;;;;4960428;28;20170;-76
2024/01/02 09:28:31;;;;;;;0.40;0.20;;;8.30;99.90;;;;;;4966609;28;20022;-76
2024/01/02 09:30:57;;;;;;;0.20;0.20;;;8.40;99.90;;;;;;4971327;28;20027;-75
2024/01/02 09:33:25;;;;;;;2.30;0.40;;;8.40;99.90;;;;;;4970595;28;20457;-74
2024/01/02 09:35:51;;;;;;;0.20;0.20;;;8.50;99.90;;;;;;4965118;28;20740;-74
2024/01/02 09:38:18;;;;;;;0.22;0.22;;;8.60;99.90;;;;;;4953479;28;20031;-76
2024/01/02 09:40:55;;;;;;;0.20;0.10;;;8.70;99.90;;;;;;4957033;28;20074;-76
2024/01/02 09:43:39;;;;;;;0.43;0.10;;;8.70;99.90;;;;;;4954307;28;20038;-80
2024/01/02 09:46:19;;;;;;;0.30;0.20;;;8.80;99.90;;;;;;4968134;28;20066;-79
2024/01/02 09:49:05;;;;;;;0.10;0.10;;;8.90;99.90;;;;;;4971046;28;20031;-77
2024/01/02 09:51:31;;;;;;;0.10;0.10;;;9.00;99.90;;;;;;4969921;28;20037;-76
2024/01/02 09:53:59;;;;;;;0.10;0.10;;;9.10;99.90;;;;;;4956042;28;20035;-73
2024/01/02 09:56:39;;;;;;;0.52;0.10;;;9.10;99.90;;;;;;4965462;28;20041;-75
2024/01/02 09:59:11;;;;;;;0.80;0.10;;;9.10;99.90;;;;;;4967115;28;20166;-75
2024/01/02 10:02:25;;;;;;;0.38;0.20;;;9.20;99.90;;;;;;4969784;28;20038;-74
2024/01/02 10:04:54;;;;;;;0.08;0.08;;;9.20;99.90;;;;;;4951614;28;20050;-77
2024/01/02 10:07:27;;;;;;;0.17;0.10;;;;;;;;;;4971109;28;20023;-76
2024/01/02 10:10:12;;;;;;;0.22;0.17;;;;;;;;;;4968622;28;20051;-77
2024/01/02 10:12:48;;;;;;;0.82;0.20;;;;;;;;;;4946465;28;20103;-77
2024/01/02 10:15:25;;;;;;;0.30;0.10;;;;;;;;;;4956006;28;20388;-77
2024/01/02 10:18:10;;;;;;;0.10;0.10;;;9.70;99.90;;;;;;4967544;28;20649;-78
2024/01/02 10:20:54;;;;;;;0.40;0.10;;;9.70;99.90;;;;;;4965976;28;20038;-77
2024/01/02 10:23:57;;;;;;;0.43;0.30;;;9.70;99.90;;;;;;4963234;28;20031;-76
2024/01/02 10:26:26;;;;;;;0.70;0.10;;;9.70;99.90;;;;;;4959200;28;20367;-75
2024/01/02 10:29:00;;;;;;;1.55;0.10;;;9.80;99.90;;;;;;4969142;28;20031;-75
2024/01/02 10:31:54;;;;;;;0.10;0.10;;;9.80;99.90;;;;;;4971537;28;20031;-78
2024/01/02 10:34:30;;;;;;;0.10;0.10;;;9.80;99.90;;;;;;4938561;28;20057;-78
2024/01/02 10:37:04;;;;;;;0.10;0.10;;;9.80;99.90;;;;;;4957754;28;20487;-77
2024/01/02 10:40:06;;;;;;;0.70;0.10;;;9.80;99.90;;;;;;4971039;28;20145;-75
2024/01/02 10:42:38;;;;;;;0.25;0.20;;;9.90;99.90;;;;;;4963140;28;20031;-78
2024/01/02 10:45:23;;;;;;;0.20;0.13;;;9.90;99.90;;;;;;4960875;28;20026;-80
2024/01/02 10:48:03;;;;;;;0.10;0.10;;;9.90;99.90;;;;;;4964603;28;20028;-81
2024/01/02 10:50:39;;;;;;;;;;;9.90;99.90;;;;;;4970497;28;20185;-80
2024/01/02 10:53:32;;;;;;;2.10;0.20;;;9.90;99.90;;;;;;4945884;28;20381;-82
2024/01/02 10:56:18;;;;;;;0.20;0.20;;;10.00;99.90;;;;;;4968290;28;20031;-78
2024/01/02 10:59:27;;;;;;;0.10;0.10;;;10.00;99.90;;;;;;4954800;28;20050;-76
2024/01/02 11:02:01;;;;;;;0.20;0.13;;;10.10;99.90;;;;;;4957802;28;20062;-81
2024/01/02 11:04:31;;;;;;;0.15;0.10;;;10.10;99.90;;;;;;4957217;28;20932;-80
2024/01/02 11:07:00;;;;;;;0.38;0.10;;;;;;;;;;4963214;28;20143;-87
2024/01/02 11:09:29;;;;;;;0.25;0.20;;;10.20;99.90;;;;;;4970016;28;20041;-84
2024/01/02 11:11:58;;;;;;;0.45;0.20;;;10.20;99.90;;;;;;4963293;28;20058;-81
2024/01/02 11:14:25;;;;;;;0.30;0.10;;;10.30;99.90;;;;;;4966203;28;20031;-79
2024/01/02 11:16:53;;;;;;;0.10;0.10;;;10.30;99.90;;;;;;4965177;28;20278;-78
2024/01/02 11:19:27;;;;;;;0.20;0.10;;;10.30;99.90;;;;;;4965128;28;20163;-80
2024/01/02 11:22:15;;;;;;;0.25;0.10;;;10.30;99.90;;;;;;4960798;28;20455;-76
2024/01/02 11:24:48;;;;;;;0.38;0.10;;;10.40;99.90;;;;;;4961511;28;20548;-79
2024/01/02 11:27:19;;;;;;;0.30;0.20;;;10.50;99.90;;;;;;4967909;28;20031;-88
2024/01/02 11:29:48;;;;;;;0.20;0.10;;;10.50;99.90;;;;;;4962037;28;20035;-79
2024/01/02 11:32:18;;;;;;;0.25;0.25;;;10.60;99.90;;;;;;4961170;28;20357;-84
2024/01/02 11:34:59;;;;;;;0.20;0.10;;;10.60;99.90;;;;;;4969565;28;20031;-77
2024/01/02 11:37:34;;;;;;;1.42;0.45;;;10.70;99.90;;;;;;4962340;28;20027;-80
2024/01/02 11:40:23;;;;;;;0.10;0.10;;;10.70;99.90;;;;;;4961336;28;20039;-80
2024/01/02 11:42:51;;;;;;;0.32;0.30;;;10.70;99.90;;;;;;4961437;28;20062;-79
2024/01/02 11:45:20;;;;;;;0.85;0.15;;;10.80;99.90;;;;;;4963931;28;20389;-79
2024/01/02 11:47:52;;;;;;;0.30;0.30;;;;;;;;;;4958308;28;20055;-75
2024/01/02 11:50:18;;;;;;;0.30;0.20;;;;;;;;;;4960885;28;20027;-79
2024/01/02 11:52:50;;;;;;;0.55;0.20;;;;;;;;;;4958406;28;20023;-77
2024/01/02 11:55:23;;;;;;;0.13;0.13;;;;;;;;;;4974514;28;20031;-82
2024/01/02 11:57:53;;;;;;;0.20;0.20;;;;;;;;;;4975933;28;20034;-85
2024/01/02 12:00:31;;;;;;;0.40;0.22;;;;;;;;;;4974616;28;20109;-75
2024/01/02 12:03:08;;;;;;;0.43;0.25;;;;;;;;;;4966730;28;20027;-85
2024/01/02 12:05:38;;;;;;;0.75;0.40;;;;;;;;;;4971993;28;20030;-81
2024/01/02 12:08:07;;;;;;;0.30;0.28;;;;;;;;;;4968857;28;20213;-86
2024/01/02 12:10:35;;;;;;;0.35;0.30;;;;;;;;;;4972669;28;20477;-77
2024/01/02 12:13:16;;;;;;;0.40;0.30;;;;;;;;;;4979267;28;20035;-77
2024/01/02 12:15:48;;;;;;;0.93;0.22;;;;;;;;;;4977691;28;20034;-78
2024/01/02 12:18:15;;;;;;;0.20;0.20;;;;;;;;;;4983280;28;20019;-77
2024/01/02 12:20:45;;;;;;;0.35;0.20;;;;;;;;;;4980000;28;20492;-76
2024/01/02 12:23:12;;;;;;;0.28;0.13;;;;;;;;;;4971917;28;20038;-78
2024/01/02 12:25:40;;;;;;;0.90;0.20;;;;;;;;;;4974607;28;20027;-77
2024/01/02 12:28:06;;;;;;;0.40;0.20;;;;;;;;;;4973372;28;20031;-75
2024/01/02 12:30:32;;;;;;;0.28;0.20;;;;;;;;;;4974655;28;20031;-80
2024/01/02 12:33:04;;;;;;;0.52;0.30;;;;;;;;;;4962870;28;20074;-82
2024/01/02 12:35:32;;;;;;;3.15;0.43;;;;;;;;;;4968254;28;20070;-80
2024/01/02 12:38:07;;;;;;;0.60;0.32;;;;;;;;;;4969677;28;20027;-88
2024/01/02 12:40:35;;;;;;;0.28;0.20;;;;;;;;;;4972191;28;20073;-84
2024/01/02 12:43:03;;;;;;;0.45;0.30;;;;;;;;;;4971425;28;20038;-79
2024/01/02 12:45:31;;;;;;;0.63;0.32;;;;;;;;;;4970311;28;20244;-85
2024/01/02 12:47:59;;;;;;;2.38;0.13;;;;;;;;;;4958664;28;20031;-85
2024/01/02 12:50:29;;;;;;;0.10;0.10;;;;;;;;;;4973547;28;20085;-83
2024/01/02 12:53:09;;;;;;;0.20;0.13;;;;;;;;;;4981784;28;20094;-84
2024/01/02 12:55:37;;;;;;;0.35;0.22;;;;;;;;;;4975225;28;20102;-84
2024/01/02 12:58:04;;;;;;;0.32;0.10;;;;;;;;;;4958759;28;20476;-75
2024/01/02 13:00:30;;;;;;;0.35;0.10;;;;;;;;;;4970712;28;20058;-75
2024/01/02 13:02:56;;;;;;;0.57;0.45;;;;;;;;;;4971878;28;20073;-73
2024/01/02 13:05:22;;;;;;;0.60;0.25;;;;;;;;;;4959866;28;20476;-74
2024/01/02 13:07:48;;;;;;;0.20;0.20;;;;;;;;;;4960048;28;20085;-76
2024/01/02 13:10:14;;;;;;;0.20;0.15;;;;;;;;;;4968255;28;20441;-75
2024/01/02 13:12:43;;;;;;;0.30;0.30;;;;;;;;;;4968937;28;20031;-74